SBKPSBFL

Guest
Details From SBKP - Sao Paulo Viracopos
To SBFL - Hercillo Luz
Flight Number -
Tags Generated
Created
Modified
Stats Distance 291 nm / 539 km
Max Altitude 0 ft / 0 m
Waypoints 3
Social Downloads 0
Likes 0
Share VATSIM

Download

Looking for another format? Having issues loading an existing format? Contact us
Advertisement - Login to hide

Notes

Generated

Route

SBKP XRO SBFL

ID Type Via Altitude Latitude Longitude Leg Dist Tot Dist Heading (true) Name
O SBKP APT - 0 ft / 0 m -22.99843˚ -47.14702˚ - 0 nm - -
XRO VOR - 0 ft / 0 m -27.67033˚ -48.54667˚ 290 nm 290 nm 195° / 195° FLORIANOPOLIS VOR-DME
O SBFL APT - 0 ft / 0 m -27.67664˚ -48.55458˚ 0 nm 291 nm 228° / 228° -

Altitude Profile

Advertisement - Login to hide

Weather


0- 5 10 15 20 25 30 35+ Temperature / ° C

Clouds and Precipitation
Forecast for 2017-12-12 00:00 UTC. Updated 14 minutes ago

Ground ~20,000 ft ~40,000 ft Winds

SBKP

Details ICAO SBKP (VCP)
Name Sao Paulo Viracopos
Region Brazil
Timezone America/Sao_Paulo (UTC-2.0)
Stats Elevation 2,170 ft / 661 m (AMSL)
Location -23.007383° -47.134522°
Runways 1
Magnetic Variation 21.194° W

METAR

SBKP 111900Z 13020G30KT 9999 FEW040 FEW045TCU 29/17 Q1008

Decode

TAF

TAF SBKP 101600Z 1118/1218 22007KT 9999 SCT045TX30/1119Z TN17/1208Z PROB30 1120/1124 17015G30KT 6000 TSRA SCT040 FEW050CB BECMG 1200/1202 15017KT CAVOK BECMG 1204/1206 14012KT PROB30 1209/1212 BKN025 BECMG 1212/1214 14015KT 9999 BKN033 PROB30 1216/1218 BKN025 RMK PGE

Decode

Departure Runways

ID Width Length Bearing (true) Bearing (mag) Surface Threshold Offset Overrun Length
15 148 ft / 45 m 10,639 ft / 3,243 m 127.91° 149.10° Asphalt 0 ft / 0 m 205 ft / 62 m
33 148 ft / 45 m 10,639 ft / 3,243 m 307.90° 329.09° Asphalt 0 ft / 0 m 205 ft / 62 m

SBFL

Details ICAO SBFL (FLN)
Name Hercillo Luz
Region Brazil
Timezone America/Sao_Paulo (UTC-2.0)
Stats Elevation 19 ft / 6 m (AMSL)
Location -27.670487° -48.547180°
Runways 2
Magnetic Variation 19.319° W

METAR

SBFL 111900Z 18022G32KT 9999 FEW030 24/14 Q1010

Decode

TAF

TAF SBFL 111400Z 1118/1218 18017KT CAVOK TX26/1118Z TN18/1208Z BECMG 1122/1124 12008KT 9999 BKN030 RMK PEB

Decode

Destination Runways

ID Width Length Bearing (true) Bearing (mag) Surface Threshold Offset Overrun Length
03 148 ft / 45 m 4,939 ft / 1,505 m 11.55° 30.87° Concrete 0 ft / 0 m 0 ft / 0 m
14 148 ft / 45 m 7,543 ft / 2,299 m 121.30° 140.62° Asphalt 720 ft / 219 m 0 ft / 0 m
21 148 ft / 45 m 4,939 ft / 1,505 m 191.55° 210.87° Concrete 0 ft / 0 m 0 ft / 0 m
32 148 ft / 45 m 7,543 ft / 2,299 m 301.29° 320.61° Asphalt 0 ft / 0 m 200 ft / 61 m

Approach Navaids

Runway Type Ident Frequency Range Bearing (true) Bearing (mag) Slope Elevation
14 Localiser IFL 110.30 MHz 18 nm / 33 km 121.67° 140.98° - 19 ft / 6 m (AMSL)
14 Glidescope IFL 110.30 MHz 10 nm / 19 km 121.29° 140.61° 3.00° 19 ft / 6 m (AMSL)

Popular Alternatives